Time;durP1;ratioP1;P1;durP2;ratioP2;P2;SDS_P1;SDS_P2;PMS_P1;PMS_P2;Temp;Humidity;BMP_temperature;BMP_pressure;BME280_temperature;BME280_humidity;BME280_pressure;Samples;Min_cycle;Max_cycle;Signal;HPM_P1;HPM_P2
2023/10/25 00:01:56;;;;;;;12.20;11.13;;;11.90;87.80;;;;;;6257104;28;20679;-86
2023/10/25 00:04:59;;;;;;;13.27;11.93;;;11.90;87.80;;;;;;6253085;28;20237;-83
2023/10/25 00:08:04;;;;;;;13.60;12.40;;;11.90;87.70;;;;;;6240286;28;20260;-84
2023/10/25 00:11:12;;;;;;;14.23;12.93;;;11.90;87.80;;;;;;6240135;28;20782;-85
2023/10/25 00:14:17;;;;;;;11.93;10.93;;;11.90;87.80;;;;;;6244794;28;20234;-83
2023/10/25 00:17:21;;;;;;;12.33;11.07;;;11.90;87.80;;;;;;6258524;28;20234;-82
2023/10/25 00:20:24;;;;;;;13.87;12.67;;;11.90;87.80;;;;;;6241141;28;20226;-84
2023/10/25 00:23:27;;;;;;;11.50;10.50;;;11.90;87.80;;;;;;6248463;28;20233;-85
2023/10/25 00:26:30;;;;;;;13.73;12.47;;;11.90;87.70;;;;;;6246944;28;20249;-82
2023/10/25 00:29:35;;;;;;;12.83;11.77;;;11.80;87.70;;;;;;6244659;28;20233;-86
2023/10/25 00:32:41;;;;;;;12.60;11.50;;;11.80;87.80;;;;;;6227822;28;20237;-85
2023/10/25 00:35:44;;;;;;;11.73;10.73;;;11.80;87.70;;;;;;6250084;28;20265;-83
2023/10/25 00:38:47;;;;;;;12.60;11.40;;;11.80;87.80;;;;;;6256122;28;20308;-82
2023/10/25 00:41:50;;;;;;;13.33;12.23;;;11.80;87.70;;;;;;6250612;28;20325;-84
2023/10/25 00:44:56;;;;;;;13.63;12.43;;;11.70;87.80;;;;;;6258833;28;20359;-84
2023/10/25 00:47:59;;;;;;;13.30;12.03;;;11.80;87.90;;;;;;6236388;28;20242;-83
2023/10/25 00:51:02;;;;;;;12.47;11.37;;;11.80;87.70;;;;;;6255266;28;20717;-81
2023/10/25 00:54:06;;;;;;;12.27;11.17;;;11.80;87.70;;;;;;6262205;28;20242;-83
2023/10/25 00:57:09;;;;;;;13.67;12.47;;;11.80;87.60;;;;;;6248035;28;20234;-86
2023/10/25 01:00:15;;;;;;;11.97;11.07;;;11.80;87.50;;;;;;6246557;28;20295;-82
2023/10/25 01:03:19;;;;;;;12.10;11.10;;;11.80;87.60;;;;;;6234279;28;20638;-83
2023/10/25 01:06:22;;;;;;;12.27;11.27;;;11.80;87.50;;;;;;6243820;28;20243;-85
2023/10/25 01:09:26;;;;;;;12.20;11.20;;;11.70;87.50;;;;;;6254079;28;20238;-84
2023/10/25 01:12:29;;;;;;;10.87;10.07;;;11.70;87.50;;;;;;6246319;28;20261;-85
2023/10/25 01:15:34;;;;;;;10.37;9.67;;;11.70;87.30;;;;;;6249824;28;20283;-84
2023/10/25 01:18:37;;;;;;;10.53;9.73;;;11.70;87.30;;;;;;6254999;28;20244;-84
2023/10/25 01:21:42;;;;;;;12.23;11.07;;;11.70;87.30;;;;;;6246055;28;20287;-84
2023/10/25 01:24:47;;;;;;;9.77;9.10;;;11.60;87.30;;;;;;6253412;28;20239;-81
2023/10/25 01:27:51;;;;;;;10.90;10.20;;;11.60;87.30;;;;;;6251784;28;20222;-82
2023/10/25 01:30:54;;;;;;;10.80;10.10;;;11.50;87.30;;;;;;6247751;28;20239;-84
2023/10/25 01:33:58;;;;;;;9.50;8.77;;;11.50;87.40;;;;;;6253317;28;20302;-82
2023/10/25 01:37:01;;;;;;;10.17;9.40;;;11.50;87.50;;;;;;6245683;28;20730;-84
2023/10/25 01:40:08;;;;;;;9.50;8.80;;;11.50;87.50;;;;;;6246720;28;20325;-82
2023/10/25 01:43:11;;;;;;;9.87;9.27;;;11.50;87.50;;;;;;6245991;28;20284;-81
2023/10/25 01:46:14;;;;;;;9.27;8.70;;;11.50;87.60;;;;;;6244783;28;20905;-81
2023/10/25 01:49:18;;;;;;;9.83;9.07;;;11.50;87.60;;;;;;6248826;28;20233;-83
2023/10/25 01:52:21;;;;;;;9.67;8.97;;;11.50;87.70;;;;;;6246588;28;20277;-83
2023/10/25 01:55:25;;;;;;;8.90;8.40;;;11.50;87.60;;;;;;6240891;28;20250;-83
2023/10/25 01:58:28;;;;;;;10.73;10.03;;;11.60;87.60;;;;;;6238836;28;20239;-83
2023/10/25 02:01:31;;;;;;;11.40;10.60;;;11.50;87.60;;;;;;6245491;28;20325;-84
2023/10/25 02:04:36;;;;;;;12.77;11.67;;;11.50;87.70;;;;;;6239146;28;20246;-86
2023/10/25 02:07:40;;;;;;;13.40;12.07;;;11.50;87.70;;;;;;6239165;28;20317;-79
2023/10/25 02:10:44;;;;;;;13.77;12.53;;;11.60;87.70;;;;;;6242529;28;20222;-84
2023/10/25 02:13:48;;;;;;;13.73;12.53;;;11.60;87.60;;;;;;6237947;28;20245;-82
2023/10/25 02:16:51;;;;;;;16.03;14.33;;;11.60;87.60;;;;;;6254993;28;21006;-81
2023/10/25 02:19:54;;;;;;;16.30;14.83;;;11.60;87.40;;;;;;6254582;28;20241;-81
2023/10/25 02:22:57;;;;;;;16.20;14.70;;;11.50;87.20;;;;;;6254998;28;20246;-82
2023/10/25 02:26:02;;;;;;;18.77;16.87;;;11.50;87.30;;;;;;6238788;28;20296;-79
2023/10/25 02:29:05;;;;;;;16.10;14.67;;;11.50;87.30;;;;;;6264399;28;20230;-83
2023/10/25 02:32:10;;;;;;;18.00;16.20;;;11.50;87.30;;;;;;6251892;28;20356;-84
2023/10/25 02:35:15;;;;;;;18.30;16.50;;;11.50;87.20;;;;;;6253105;28;20811;-85
2023/10/25 02:38:19;;;;;;;19.20;17.30;;;11.50;87.20;;;;;;6257289;28;20269;-85
2023/10/25 02:41:23;;;;;;;18.50;16.70;;;11.50;87.20;;;;;;6259709;28;20243;-87
2023/10/25 02:44:27;;;;;;;18.57;16.93;;;11.50;87.10;;;;;;6247848;28;20235;-86
2023/10/25 02:47:30;;;;;;;20.30;18.17;;;11.50;87.20;;;;;;6259780;28;20617;-84
2023/10/25 02:50:34;;;;;;;21.83;19.63;;;11.50;87.10;;;;;;6254787;28;20606;-86
2023/10/25 02:53:37;;;;;;;20.03;18.13;;;11.50;87.00;;;;;;6247054;28;20234;-89
2023/10/25 02:56:42;;;;;;;21.10;19.03;;;11.50;86.80;;;;;;6252385;28;20241;-84
2023/10/25 02:59:45;;;;;;;22.00;19.60;;;11.50;86.90;;;;;;6252910;28;20285;-86
2023/10/25 03:02:48;;;;;;;21.00;19.00;;;11.40;86.80;;;;;;6258693;28;20244;-84
2023/10/25 03:05:51;;;;;;;21.23;19.13;;;11.40;86.80;;;;;;6249482;28;20746;-83
2023/10/25 03:08:54;;;;;;;20.23;18.30;;;11.40;86.70;;;;;;6246877;28;20829;-84
2023/10/25 03:11:59;;;;;;;22.07;19.97;;;11.40;86.60;;;;;;6254660;28;20227;-85
2023/10/25 03:15:03;;;;;;;19.27;17.50;;;11.40;86.20;;;;;;6234332;28;20239;-83
2023/10/25 03:18:06;;;;;;;20.57;18.40;;;11.40;86.40;;;;;;6220493;28;20238;-84
2023/10/25 03:21:09;;;;;;;21.63;19.50;;;11.40;86.40;;;;;;6219469;28;20231;-84
2023/10/25 03:24:12;;;;;;;19.10;17.30;;;11.40;86.40;;;;;;6219704;28;20235;-85
2023/10/25 03:27:17;;;;;;;22.70;20.47;;;11.30;86.50;;;;;;6223435;28;20262;-83
2023/10/25 03:30:20;;;;;;;22.53;20.17;;;11.40;86.20;;;;;;6224419;28;20248;-85
2023/10/25 03:33:24;;;;;;;21.50;19.40;;;11.40;86.10;;;;;;6224518;28;20245;-84
2023/10/25 03:36:27;;;;;;;19.37;17.57;;;11.30;85.70;;;;;;6239762;28;20246;-80
2023/10/25 03:39:30;;;;;;;21.07;19.07;;;11.30;85.80;;;;;;6222158;28;20250;-84
2023/10/25 03:42:35;;;;;;;20.47;18.63;;;11.30;85.20;;;;;;6215903;28;20295;-82
2023/10/25 03:45:38;;;;;;;19.60;17.70;;;11.30;85.40;;;;;;6217253;28;20861;-83
2023/10/25 03:48:41;;;;;;;20.57;18.67;;;11.30;85.50;;;;;;6217482;28;20243;-85
2023/10/25 03:51:45;;;;;;;21.40;19.47;;;11.20;85.40;;;;;;6212804;28;20341;-83
2023/10/25 03:54:48;;;;;;;20.80;18.77;;;11.20;85.10;;;;;;6244310;28;20227;-86
2023/10/25 03:57:54;;;;;;;19.93;17.93;;;11.10;85.00;;;;;;6239772;28;20234;-83
2023/10/25 04:01:01;;;;;;;18.43;16.63;;;11.10;84.90;;;;;;6254808;28;20223;-77
2023/10/25 04:04:06;;;;;;;19.77;17.90;;;11.10;85.20;;;;;;6261169;28;20238;-80
2023/10/25 04:07:11;;;;;;;19.40;17.57;;;11.10;85.00;;;;;;6247922;28;20295;-86
2023/10/25 04:10:15;;;;;;;19.53;17.43;;;11.10;85.10;;;;;;6248600;28;20243;-82
2023/10/25 04:13:20;;;;;;;16.63;15.17;;;11.10;84.80;;;;;;6253917;28;20230;-84
2023/10/25 04:16:23;;;;;;;19.53;17.53;;;11.10;85.00;;;;;;6266271;28;20247;-78
2023/10/25 04:19:27;;;;;;;18.23;16.40;;;11.10;84.60;;;;;;6235973;28;20239;-82
2023/10/25 04:22:30;;;;;;;16.57;15.10;;;11.00;84.40;;;;;;6247985;28;20241;-80
2023/10/25 04:25:39;;;;;;;18.60;16.83;;;11.00;84.40;;;;;;6263668;28;20330;-75
2023/10/25 04:28:45;;;;;;;16.80;15.20;;;10.90;84.30;;;;;;6291686;28;20218;-82
2023/10/25 04:31:48;;;;;;;18.13;16.57;;;10.90;83.80;;;;;;6243937;28;20235;-82
2023/10/25 04:34:51;;;;;;;16.63;15.03;;;10.90;84.00;;;;;;6243606;28;20242;-85
2023/10/25 04:37:55;;;;;;;17.70;16.00;;;10.90;84.20;;;;;;6240126;28;20231;-84
2023/10/25 04:40:59;;;;;;;19.23;17.53;;;10.80;84.30;;;;;;6246139;28;20249;-84
2023/10/25 04:44:04;;;;;;;19.27;17.47;;;10.90;84.10;;;;;;6247922;28;21088;-84
2023/10/25 04:47:07;;;;;;;18.30;16.70;;;10.80;83.80;;;;;;6246984;28;20238;-84
2023/10/25 04:50:11;;;;;;;19.73;17.80;;;10.70;83.60;;;;;;6258593;28;20230;-77
2023/10/25 04:53:14;;;;;;;19.50;17.70;;;10.60;83.60;;;;;;6297231;28;20253;-77
2023/10/25 04:56:23;;;;;;;19.10;17.40;;;10.60;83.60;;;;;;6250623;28;20219;-75
2023/10/25 04:59:29;;;;;;;20.53;18.27;;;10.50;83.70;;;;;;6272541;28;20227;-75
2023/10/25 05:02:32;;;;;;;22.00;19.90;;;10.50;83.80;;;;;;6270241;28;20253;-77
2023/10/25 05:05:37;;;;;;;19.37;17.67;;;10.40;83.90;;;;;;6270939;28;20219;-81
2023/10/25 05:08:41;;;;;;;20.40;18.40;;;10.40;84.00;;;;;;6258142;28;20228;-86
2023/10/25 05:11:55;;;;;;;20.50;18.60;;;10.30;84.10;;;;;;6263394;28;20218;-78
2023/10/25 05:15:02;;;;;;;20.07;18.20;;;10.30;84.10;;;;;;6260862;28;20265;-79
2023/10/25 05:18:05;;;;;;;20.40;18.57;;;10.20;84.30;;;;;;6260831;28;20422;-77
2023/10/25 05:21:12;;;;;;;21.50;19.47;;;10.10;84.30;;;;;;6257025;28;20250;-81
2023/10/25 05:24:15;;;;;;;21.17;19.17;;;10.10;84.50;;;;;;6261888;28;20231;-81
2023/10/25 05:27:19;;;;;;;21.10;18.90;;;10.10;84.60;;;;;;6259066;28;20253;-80
2023/10/25 05:30:25;;;;;;;22.27;20.07;;;10.10;84.60;;;;;;6267199;28;20260;-81
2023/10/25 05:33:30;;;;;;;22.00;18.73;;;10.00;84.80;;;;;;6263246;28;20808;-79
2023/10/25 05:36:34;;;;;;;22.47;20.20;;;10.00;84.50;;;;;;6266501;28;20249;-78
2023/10/25 05:39:37;;;;;;;21.27;18.67;;;10.00;84.60;;;;;;6268051;28;20249;-81
2023/10/25 05:42:46;;;;;;;21.20;19.00;;;10.00;84.70;;;;;;6274657;28;20347;-81
2023/10/25 05:45:51;;;;;;;24.77;20.23;;;10.00;84.70;;;;;;6280726;28;20259;-82
2023/10/25 05:48:55;;;;;;;19.80;17.80;;;9.80;84.80;;;;;;6282060;28;20268;-81
2023/10/25 05:51:58;;;;;;;20.10;18.10;;;9.80;84.80;;;;;;6271428;28;20229;-80
2023/10/25 05:55:02;;;;;;;19.53;17.60;;;9.80;84.90;;;;;;6270161;28;20249;-81
2023/10/25 05:58:06;;;;;;;20.00;18.27;;;9.80;85.00;;;;;;6268541;28;20295;-80
2023/10/25 06:01:11;;;;;;;19.07;17.37;;;9.70;85.00;;;;;;6271993;28;20297;-81
2023/10/25 06:04:15;;;;;;;19.13;17.13;;;9.70;85.10;;;;;;6285521;28;20310;-82
2023/10/25 06:07:18;;;;;;;21.90;19.63;;;9.70;85.10;;;;;;6278432;28;20332;-80
2023/10/25 06:10:22;;;;;;;21.67;19.30;;;9.70;85.10;;;;;;6283531;28;20237;-83
2023/10/25 06:13:26;;;;;;;21.20;19.03;;;9.80;85.00;;;;;;6263722;28;20234;-80
2023/10/25 06:16:31;;;;;;;21.47;19.33;;;9.80;85.10;;;;;;6277211;28;20230;-82
2023/10/25 06:19:34;;;;;;;20.40;18.30;;;9.80;84.70;;;;;;6280409;28;20237;-76
2023/10/25 06:22:37;;;;;;;21.43;19.20;;;9.80;84.70;;;;;;6264578;28;20292;-80
2023/10/25 06:25:40;;;;;;;23.03;20.60;;;9.80;84.50;;;;;;6257860;28;20732;-78
2023/10/25 06:28:43;;;;;;;21.80;19.57;;;9.90;84.50;;;;;;6256721;28;20312;-80
2023/10/25 06:31:51;;;;;;;23.73;21.23;;;10.00;84.50;;;;;;6250771;28;20721;-80
2023/10/25 06:34:54;;;;;;;21.57;19.57;;;10.00;84.30;;;;;;6245668;28;20235;-82
2023/10/25 06:37:58;;;;;;;23.20;20.90;;;10.00;84.30;;;;;;6239814;28;20268;-80
2023/10/25 06:41:02;;;;;;;23.37;20.87;;;10.00;84.10;;;;;;6251472;28;20343;-80
2023/10/25 06:44:06;;;;;;;26.17;21.93;;;10.00;84.20;;;;;;6261563;28;20250;-78
2023/10/25 06:47:12;;;;;;;24.10;21.53;;;10.00;84.20;;;;;;6242326;28;20249;-80
2023/10/25 06:50:16;;;;;;;22.13;19.57;;;10.00;84.20;;;;;;6256691;28;20234;-78
2023/10/25 06:53:21;;;;;;;21.47;19.47;;;10.10;84.10;;;;;;6252368;28;20310;-79
2023/10/25 06:56:25;;;;;;;21.87;19.67;;;10.10;84.30;;;;;;6256233;28;20321;-79
2023/10/25 06:59:28;;;;;;;22.83;20.53;;;10.20;84.40;;;;;;6241929;28;20234;-79
2023/10/25 07:02:39;;;;;;;24.67;22.00;;;10.20;84.30;;;;;;6243500;28;20242;-80
2023/10/25 07:05:43;;;;;;;25.80;23.03;;;10.30;84.20;;;;;;6252417;28;20266;-79
2023/10/25 07:08:48;;;;;;;26.17;23.23;;;10.30;83.90;;;;;;6243190;28;20721;-81
2023/10/25 07:11:51;;;;;;;25.27;22.57;;;10.30;83.80;;;;;;6255050;28;20238;-78
2023/10/25 07:14:55;;;;;;;27.00;23.87;;;10.30;83.70;;;;;;6256429;28;20240;-80
2023/10/25 07:17:59;;;;;;;30.03;24.13;;;10.40;83.70;;;;;;6250892;28;20235;-80
2023/10/25 07:21:02;;;;;;;30.00;24.73;;;10.40;83.40;;;;;;6247684;28;20242;-81
2023/10/25 07:24:06;;;;;;;30.40;24.70;;;10.50;83.30;;;;;;6257793;28;20252;-80
2023/10/25 07:27:10;;;;;;;32.93;25.47;;;10.40;83.60;;;;;;6250643;28;20281;-79
2023/10/25 07:30:13;;;;;;;30.13;25.13;;;10.30;83.80;;;;;;6250287;28;20242;-79
2023/10/25 07:33:18;;;;;;;28.63;25.47;;;10.40;84.10;;;;;;6253208;28;20676;-82
2023/10/25 07:36:21;;;;;;;26.87;23.57;;;10.50;83.80;;;;;;6250258;28;20237;-81
2023/10/25 07:39:25;;;;;;;27.73;23.93;;;10.50;83.70;;;;;;6249005;28;20317;-83
2023/10/25 07:42:28;;;;;;;27.43;23.47;;;10.70;83.20;;;;;;6246258;28;20242;-79
2023/10/25 07:45:32;;;;;;;25.43;22.73;;;10.70;83.20;;;;;;6253733;28;20245;-79
2023/10/25 07:48:36;;;;;;;25.07;21.40;;;10.90;82.50;;;;;;6250561;28;20241;-80
2023/10/25 07:51:40;;;;;;;29.97;20.20;;;11.00;82.20;;;;;;6250434;28;20729;-81
2023/10/25 07:54:43;;;;;;;24.13;21.20;;;11.10;81.50;;;;;;6258144;28;20371;-80
2023/10/25 07:57:47;;;;;;;22.03;19.17;;;11.20;81.30;;;;;;6241898;28;20231;-79
2023/10/25 08:01:11;;;;;;;23.20;19.30;;;11.40;81.60;;;;;;6234236;28;20253;-82
2023/10/25 08:04:15;;;;;;;21.37;19.17;;;11.50;80.00;;;;;;6251397;28;20222;-79
2023/10/25 08:07:19;;;;;;;21.00;18.60;;;11.50;80.10;;;;;;6245696;28;20637;-78
2023/10/25 08:10:22;;;;;;;20.20;18.30;;;11.60;80.20;;;;;;6253050;28;20234;-81
2023/10/25 08:13:25;;;;;;;19.23;16.30;;;11.70;79.40;;;;;;6242228;28;20233;-82
2023/10/25 08:16:28;;;;;;;18.57;16.67;;;11.70;78.40;;;;;;6260359;28;20344;-80
2023/10/25 08:19:35;;;;;;;18.73;16.80;;;11.70;77.50;;;;;;6253504;28;20234;-82
2023/10/25 08:22:39;;;;;;;18.77;17.03;;;11.70;78.20;;;;;;6248780;28;20330;-79
2023/10/25 08:25:43;;;;;;;20.13;18.00;;;11.80;78.50;;;;;;6248801;28;20247;-81
2023/10/25 08:28:47;;;;;;;21.03;16.40;;;11.90;78.30;;;;;;6262056;28;20372;-80
2023/10/25 08:31:50;;;;;;;19.27;17.43;;;11.90;78.50;;;;;;6239135;28;20769;-82
2023/10/25 08:34:55;;;;;;;16.70;15.27;;;11.90;77.90;;;;;;6244834;28;20249;-78
2023/10/25 08:37:58;;;;;;;18.50;16.70;;;11.90;77.90;;;;;;6252706;28;20243;-83
2023/10/25 08:41:05;;;;;;;18.67;16.93;;;12.00;77.70;;;;;;6248853;28;20261;-83
2023/10/25 08:44:09;;;;;;;18.37;16.57;;;11.90;77.70;;;;;;6255314;28;20353;-83
2023/10/25 08:47:12;;;;;;;19.63;17.70;;;12.00;77.70;;;;;;6244709;28;20260;-80
2023/10/25 08:50:19;;;;;;;20.47;18.43;;;11.90;78.00;;;;;;6233808;28;20806;-80
2023/10/25 08:53:24;;;;;;;19.80;17.80;;;11.90;77.90;;;;;;6247577;28;20325;-81
2023/10/25 08:56:29;;;;;;;19.37;17.40;;;12.00;77.70;;;;;;6247281;28;20253;-79
2023/10/25 08:59:40;;;;;;;19.23;17.23;;;12.10;77.40;;;;;;6251648;28;20231;-80
2023/10/25 09:02:45;;;;;;;19.97;17.93;;;12.30;77.20;;;;;;6253044;28;20239;-81
2023/10/25 09:06:03;;;;;;;18.17;16.47;;;12.20;77.00;;;;;;6251662;28;20617;-80
2023/10/25 09:09:07;;;;;;;17.67;16.07;;;12.20;76.60;;;;;;6210755;28;20722;-81
2023/10/25 09:12:20;;;;;;;18.47;16.20;;;12.20;76.70;;;;;;6213342;28;20848;-81
2023/10/25 09:15:30;;;;;;;17.90;16.10;;;12.30;77.10;;;;;;6209882;28;20258;-81
2023/10/25 09:18:34;;;;;;;18.43;16.63;;;12.30;76.40;;;;;;6208082;28;20231;-81
2023/10/25 09:21:39;;;;;;;21.50;17.43;;;12.40;76.20;;;;;;6212252;28;20227;-81
2023/10/25 09:24:48;;;;;;;17.03;15.33;;;12.40;75.80;;;;;;6212729;28;20246;-81
2023/10/25 09:27:51;;;;;;;19.87;17.97;;;12.50;76.50;;;;;;6212104;28;20231;-81
2023/10/25 09:30:56;;;;;;;18.93;16.93;;;12.40;76.30;;;;;;6210608;28;20243;-81
2023/10/25 09:34:00;;;;;;;18.50;16.67;;;12.20;76.60;;;;;;6212713;28;20244;-84
2023/10/25 09:37:07;;;;;;;18.70;16.70;;;12.20;76.70;;;;;;6199116;28;20236;-82
2023/10/25 09:40:14;;;;;;;16.50;14.97;;;12.20;77.40;;;;;;6212910;28;20834;-80
2023/10/25 09:43:20;;;;;;;15.83;14.33;;;12.40;77.20;;;;;;6217024;28;20246;-80
2023/10/25 09:46:23;;;;;;;15.00;13.70;;;12.50;77.20;;;;;;6225364;28;20630;-81
2023/10/25 09:49:29;;;;;;;17.90;16.17;;;12.70;77.00;;;;;;6231771;28;20752;-80
2023/10/25 09:52:39;;;;;;;19.17;16.40;;;12.80;75.40;;;;;;6237243;28;20231;-81
2023/10/25 09:55:46;;;;;;;17.83;16.13;;;12.80;75.70;;;;;;6235241;28;20328;-80
2023/10/25 09:58:50;;;;;;;17.20;15.60;;;13.00;74.70;;;;;;6235722;28;20312;-82
2023/10/25 10:01:55;;;;;;;17.73;16.03;;;13.00;75.30;;;;;;6238525;28;20300;-80
2023/10/25 10:05:06;;;;;;;15.40;13.53;;;13.00;74.50;;;;;;6235341;28;20238;-81
2023/10/25 10:08:17;;;;;;;15.77;14.20;;;12.90;75.30;;;;;;6233854;28;20249;-81
2023/10/25 10:11:28;;;;;;;14.03;12.90;;;12.90;74.90;;;;;;6245054;28;20234;-80
2023/10/25 10:14:33;;;;;;;13.67;12.27;;;12.70;75.20;;;;;;6245240;28;20831;-81
2023/10/25 10:17:42;;;;;;;13.20;11.90;;;12.80;75.00;;;;;;6246588;28;20241;-81
2023/10/25 10:20:59;;;;;;;13.17;11.97;;;12.90;75.10;;;;;;6233694;28;20230;-80
2023/10/25 10:24:04;;;;;;;11.07;10.20;;;13.00;74.90;;;;;;6253653;28;20243;-80
2023/10/25 10:27:07;;;;;;;12.63;11.43;;;13.10;75.30;;;;;;6226227;28;20235;-82
2023/10/25 10:30:34;;;;;;;15.30;13.87;;;13.10;75.20;;;;;;6245230;28;20234;-82
2023/10/25 10:33:43;;;;;;;12.50;11.33;;;13.10;74.30;;;;;;6244194;28;20227;-80
2023/10/25 10:37:06;;;;;;;14.60;13.27;;;13.10;74.50;;;;;;6248105;28;20725;-81
2023/10/25 10:40:15;;;;;;;11.67;10.10;;;13.30;74.60;;;;;;6245468;28;20622;-80
2023/10/25 10:43:20;;;;;;;10.43;9.60;;;13.30;73.60;;;;;;6242128;28;20886;-83
2023/10/25 10:46:27;;;;;;;11.60;10.60;;;13.50;73.90;;;;;;6237664;28;20234;-81
2023/10/25 10:49:31;;;;;;;10.43;9.73;;;13.50;72.00;;;;;;6244710;28;20238;-83
2023/10/25 10:52:35;;;;;;;10.70;9.90;;;13.50;72.60;;;;;;6245810;28;20916;-82
2023/10/25 10:55:40;;;;;;;10.17;9.40;;;13.50;73.20;;;;;;6248526;28;20238;-80
2023/10/25 10:58:43;;;;;;;10.70;9.80;;;13.40;72.20;;;;;;6230667;28;20241;-81
2023/10/25 11:01:46;;;;;;;10.53;9.53;;;13.40;72.00;;;;;;6249377;28;20317;-82
2023/10/25 11:04:49;;;;;;;8.83;8.13;;;13.30;72.50;;;;;;6255370;28;20235;-81
2023/10/25 11:07:54;;;;;;;10.37;9.63;;;13.40;72.40;;;;;;6245569;28;20246;-81
2023/10/25 11:10:58;;;;;;;11.10;10.10;;;13.50;71.80;;;;;;6245753;28;20251;-81
2023/10/25 11:14:01;;;;;;;10.23;9.20;;;13.30;71.90;;;;;;6251974;28;20249;-79
2023/10/25 11:17:04;;;;;;;9.53;8.80;;;13.50;72.80;;;;;;6244394;28;20355;-80
2023/10/25 11:20:08;;;;;;;8.27;7.57;;;13.60;72.30;;;;;;6248749;28;20300;-81
2023/10/25 11:23:11;;;;;;;7.07;6.73;;;13.70;71.70;;;;;;6237503;28;20357;-81
2023/10/25 11:26:17;;;;;;;9.37;7.27;;;13.90;71.40;;;;;;6254159;28;20435;-79
2023/10/25 11:29:21;;;;;;;8.17;7.53;;;14.20;71.00;;;;;;6260559;28;20345;-80
2023/10/25 11:32:24;;;;;;;9.27;8.50;;;14.30;70.80;;;;;;6255072;28;20239;-81
2023/10/25 11:35:28;;;;;;;8.20;7.47;;;14.50;70.00;;;;;;6251347;28;21918;-81
2023/10/25 11:38:31;;;;;;;7.30;6.90;;;14.60;69.40;;;;;;6254796;28;20653;-80
2023/10/25 11:41:36;;;;;;;7.13;6.53;;;14.80;70.10;;;;;;6239916;28;20654;-81
2023/10/25 11:44:39;;;;;;;7.50;6.90;;;15.00;69.30;;;;;;6255622;28;20242;-83
2023/10/25 11:47:46;;;;;;;7.70;6.93;;;15.30;68.20;;;;;;6244886;28;20238;-83
2023/10/25 11:50:50;;;;;;;6.33;5.80;;;15.40;67.80;;;;;;6240681;28;20233;-84
2023/10/25 11:53:53;;;;;;;6.40;5.83;;;15.50;67.30;;;;;;6253471;28;20869;-82
2023/10/25 11:56:58;;;;;;;7.33;6.13;;;15.80;67.20;;;;;;6246357;28;20234;-83
2023/10/25 12:00:01;;;;;;;7.50;6.90;;;15.70;65.90;;;;;;6255686;28;20253;-83
2023/10/25 12:03:04;;;;;;;6.23;5.83;;;15.70;65.50;;;;;;6249831;28;20233;-81
2023/10/25 12:06:08;;;;;;;7.90;6.33;;;15.80;66.20;;;;;;6256629;28;20241;-84
2023/10/25 12:09:12;;;;;;;7.87;7.10;;;15.60;65.70;;;;;;6260091;28;20313;-81
2023/10/25 12:12:16;;;;;;;6.70;6.17;;;15.50;65.80;;;;;;6215124;28;20738;-80
2023/10/25 12:15:20;;;;;;;6.73;6.07;;;15.60;66.40;;;;;;6213885;28;20305;-81
2023/10/25 12:18:24;;;;;;;6.70;5.83;;;15.80;67.00;;;;;;6215162;28;20239;-83
2023/10/25 12:21:29;;;;;;;6.33;5.83;;;15.80;66.60;;;;;;6213870;28;20236;-83
2023/10/25 12:24:32;;;;;;;4.83;4.53;;;15.10;65.40;;;;;;6215059;28;20333;-82
2023/10/25 12:27:37;;;;;;;5.20;4.80;;;14.90;66.70;;;;;;6210929;28;20386;-83
2023/10/25 12:30:40;;;;;;;5.97;5.47;;;14.80;66.30;;;;;;6210112;28;20274;-85
2023/10/25 12:33:44;;;;;;;7.57;6.90;;;14.80;67.10;;;;;;6216818;28;20246;-83
2023/10/25 12:36:48;;;;;;;6.30;5.80;;;14.80;68.10;;;;;;6213539;28;20310;-80
2023/10/25 12:39:55;;;;;;;6.57;6.13;;;14.80;67.10;;;;;;6249596;28;20234;-83
2023/10/25 12:42:59;;;;;;;7.07;6.33;;;15.00;67.20;;;;;;6254979;28;20317;-84
2023/10/25 12:46:03;;;;;;;5.93;5.60;;;14.90;67.30;;;;;;6252371;28;20446;-84
2023/10/25 12:49:07;;;;;;;6.50;6.00;;;15.20;67.50;;;;;;6251637;28;20858;-82
2023/10/25 12:52:10;;;;;;;5.93;5.63;;;15.30;67.10;;;;;;6247067;28;20253;-82
2023/10/25 12:55:13;;;;;;;7.17;6.30;;;15.40;65.80;;;;;;6260167;28;20245;-84
2023/10/25 12:58:18;;;;;;;9.93;6.70;;;14.80;66.10;;;;;;6247858;28;20253;-82
2023/10/25 13:01:22;;;;;;;7.07;6.10;;;14.70;67.10;;;;;;6238165;28;20245;-81
2023/10/25 13:04:25;;;;;;;7.13;6.47;;;14.60;66.90;;;;;;6244653;28;20246;-83
2023/10/25 13:07:30;;;;;;;5.70;5.30;;;14.40;67.00;;;;;;6253842;28;20765;-82
2023/10/25 13:10:33;;;;;;;8.27;7.37;;;14.50;67.40;;;;;;6246725;28;20238;-84
2023/10/25 13:13:38;;;;;;;6.57;6.00;;;14.70;67.70;;;;;;6224169;28;20245;-81
2023/10/25 13:16:41;;;;;;;8.37;7.67;;;14.90;67.70;;;;;;6257069;28;20249;-83
2023/10/25 13:19:45;;;;;;;7.47;6.83;;;15.00;67.20;;;;;;6251082;28;20584;-83
2023/10/25 13:22:48;;;;;;;8.30;7.57;;;15.00;67.50;;;;;;6237399;28;21014;-83
2023/10/25 13:25:51;;;;;;;8.43;7.60;;;15.10;67.20;;;;;;6241067;28;20231;-82
2023/10/25 13:28:59;;;;;;;7.10;6.50;;;15.00;67.20;;;;;;6247550;28;20235;-82
2023/10/25 13:32:02;;;;;;;7.60;7.00;;;15.00;67.80;;;;;;6237519;28;20231;-82
2023/10/25 13:35:06;;;;;;;8.63;7.93;;;15.00;68.20;;;;;;6215929;28;20239;-82
2023/10/25 13:38:09;;;;;;;9.27;8.17;;;14.90;68.20;;;;;;6223906;28;20317;-81
2023/10/25 13:41:13;;;;;;;7.97;7.30;;;14.80;68.90;;;;;;6229239;28;20360;-82
2023/10/25 13:44:19;;;;;;;6.60;5.97;;;14.80;69.20;;;;;;6234056;28;20656;-81
2023/10/25 13:47:22;;;;;;;5.93;5.43;;;14.80;68.50;;;;;;6227507;28;20312;-84
2023/10/25 13:50:25;;;;;;;7.00;5.33;;;14.70;66.90;;;;;;6233662;28;20234;-83
2023/10/25 13:53:28;;;;;;;5.07;4.67;;;14.70;66.90;;;;;;6237578;28;20234;-83
2023/10/25 13:56:32;;;;;;;6.60;4.47;;;14.80;66.60;;;;;;6225184;28;20318;-85
2023/10/25 13:59:37;;;;;;;4.57;3.93;;;14.80;66.90;;;;;;6238974;28;20761;-84
2023/10/25 14:02:41;;;;;;;5.30;4.90;;;14.90;65.80;;;;;;6235535;28;20247;-83
2023/10/25 14:05:44;;;;;;;4.57;4.17;;;14.90;65.90;;;;;;6237292;28;20242;-83
2023/10/25 14:08:47;;;;;;;6.43;5.50;;;14.90;66.70;;;;;;6236441;28;20234;-83
2023/10/25 14:11:51;;;;;;;5.93;5.43;;;14.80;67.10;;;;;;6232537;28;20875;-84
2023/10/25 14:14:58;;;;;;;6.57;6.03;;;14.80;67.50;;;;;;6234743;28;20241;-84
2023/10/25 14:18:02;;;;;;;5.53;5.03;;;14.70;67.40;;;;;;6227924;28;20252;-84
2023/10/25 14:21:09;;;;;;;4.63;4.53;;;14.60;67.10;;;;;;6242108;28;20235;-84
2023/10/25 14:24:18;;;;;;;4.83;4.33;;;14.50;67.30;;;;;;6237489;28;20236;-83
2023/10/25 14:27:23;;;;;;;4.77;4.37;;;14.40;67.00;;;;;;6249042;28;20753;-83
2023/10/25 14:30:28;;;;;;;4.47;4.27;;;14.30;67.20;;;;;;6262176;28;20235;-83
2023/10/25 14:33:31;;;;;;;5.13;4.73;;;14.20;67.80;;;;;;6232703;28;20250;-81
2023/10/25 14:36:34;;;;;;;6.00;5.00;;;14.00;68.00;;;;;;6235452;28;20247;-84
2023/10/25 14:39:38;;;;;;;5.13;4.73;;;13.90;68.90;;;;;;6254790;28;20291;-83
2023/10/25 14:42:41;;;;;;;6.23;5.83;;;13.70;69.40;;;;;;6256170;28;20234;-84
2023/10/25 14:45:48;;;;;;;7.50;6.37;;;13.50;70.20;;;;;;6256855;28;20262;-82
2023/10/25 14:48:55;;;;;;;6.23;5.73;;;13.40;70.80;;;;;;6251268;28;20226;-83
2023/10/25 14:52:03;;;;;;;5.53;5.23;;;13.30;71.00;;;;;;6245594;28;20614;-83
2023/10/25 14:55:07;;;;;;;6.40;5.83;;;13.10;71.50;;;;;;6259188;28;20237;-82
2023/10/25 14:58:11;;;;;;;5.90;5.40;;;13.00;71.70;;;;;;6256571;28;20296;-80
2023/10/25 15:01:23;;;;;;;5.70;5.17;;;12.90;71.70;;;;;;6248642;28;20311;-83
2023/10/25 15:04:27;;;;;;;5.10;4.80;;;12.80;72.00;;;;;;6262986;28;20376;-79
2023/10/25 15:07:33;;;;;;;6.60;6.13;;;12.70;72.50;;;;;;6241825;28;20241;-83
2023/10/25 15:10:37;;;;;;;5.47;5.17;;;12.50;72.90;;;;;;6226099;28;20329;-86
2023/10/25 15:13:40;;;;;;;5.83;5.53;;;12.50;73.20;;;;;;6257714;28;20234;-82
2023/10/25 15:16:46;;;;;;;6.33;5.93;;;12.40;73.50;;;;;;6247735;28;20834;-81
2023/10/25 15:19:49;;;;;;;6.40;6.00;;;12.30;73.70;;;;;;6244435;28;20329;-82
2023/10/25 15:22:53;;;;;;;6.33;5.93;;;12.20;74.00;;;;;;6254931;28;20234;-81
2023/10/25 15:26:03;;;;;;;6.90;6.40;;;12.10;74.20;;;;;;6245533;28;20246;-84
2023/10/25 15:29:06;;;;;;;7.33;6.80;;;12.00;74.50;;;;;;6238295;28;20250;-82
2023/10/25 15:32:11;;;;;;;8.37;7.67;;;11.90;74.70;;;;;;6246429;28;20446;-82
2023/10/25 15:35:14;;;;;;;7.33;6.90;;;11.90;75.00;;;;;;6228707;28;20758;-83
2023/10/25 15:38:18;;;;;;;8.00;7.40;;;11.90;75.20;;;;;;6243542;28;20325;-83
2023/10/25 15:41:23;;;;;;;8.57;7.47;;;11.70;75.40;;;;;;6239948;28;20270;-82
2023/10/25 15:44:27;;;;;;;7.93;7.23;;;11.70;75.70;;;;;;6248957;28;20325;-82